createdAt,value
2022-10-19T00:00:50.864Z,128.50
2022-10-19T00:03:55.411Z,120.18
2022-10-19T00:06:40.865Z,146.77
2022-10-19T00:09:26.644Z,142.40
2022-10-19T00:12:13.087Z,142.55
2022-10-19T00:14:59.057Z,138.10
2022-10-19T00:17:44.608Z,144.23
2022-10-19T00:20:30.083Z,137.70
2022-10-19T00:23:15.663Z,135.30
2022-10-19T00:26:01.674Z,125.93
2022-10-19T00:28:47.228Z,149.38
2022-10-19T00:31:32.952Z,119.20
2022-10-19T00:34:18.403Z,132.38
2022-10-19T00:37:03.838Z,140.63
2022-10-19T00:42:35.096Z,114.70
2022-10-19T00:45:20.328Z,123.50
2022-10-19T00:48:07.065Z,107.00
2022-10-19T00:50:55.271Z,109.28
2022-10-19T00:53:41.532Z,124.78
2022-10-19T00:56:27.167Z,123.32
2022-10-19T00:59:16.368Z,109.93
2022-10-19T01:02:04.979Z,109.38
2022-10-19T01:04:55.536Z,130.75
2022-10-19T01:07:41.437Z,129.95
2022-10-19T01:10:44.128Z,98.03
2022-10-19T01:13:50.741Z,104.00
2022-10-19T01:17:02.544Z,123.97
2022-10-19T01:20:07.595Z,111.90
2022-10-19T01:23:11.582Z,121.93
2022-10-19T01:26:46.990Z,127.45
2022-10-19T01:30:00.967Z,122.13
2022-10-19T01:32:51.938Z,127.68
2022-10-19T01:35:55.292Z,128.80
2022-10-19T01:38:52.281Z,131.75
2022-10-19T01:41:49.430Z,129.45
2022-10-19T01:44:53.123Z,118.95
2022-10-19T01:48:00.520Z,130.40
2022-10-19T01:51:04.077Z,136.27
2022-10-19T01:53:54.184Z,145.02
2022-10-19T01:56:42.599Z,136.55
2022-10-19T01:59:29.056Z,147.15
2022-10-19T02:02:19.169Z,133.50
2022-10-19T02:05:07.333Z,115.10
2022-10-19T02:07:59.139Z,107.35
2022-10-19T02:10:45.976Z,124.30
2022-10-19T02:13:32.074Z,125.53
2022-10-19T02:16:32.472Z,109.47
2022-10-19T02:19:20.024Z,121.60
2022-10-19T02:22:06.063Z,128.25
2022-10-19T02:24:51.694Z,101.65
2022-10-19T02:27:41.766Z,124.13
2022-10-19T02:30:29.620Z,101.93
2022-10-19T02:33:15.194Z,120.68
2022-10-19T02:36:01.067Z,102.00
2022-10-19T02:38:46.575Z,103.07
2022-10-19T02:41:56.484Z,109.38
2022-10-19T02:45:00.118Z,118.03
2022-10-19T02:48:07.615Z,107.38
2022-10-19T02:50:53.462Z,109.22
2022-10-19T02:53:38.543Z,114.40
2022-10-19T02:56:27.195Z,107.45
2022-10-19T02:59:12.809Z,117.95
2022-10-19T03:01:58.262Z,103.65
2022-10-19T03:04:44.810Z,106.85
2022-10-19T03:07:30.176Z,105.65
2022-10-19T03:10:15.702Z,102.05
2022-10-19T03:13:01.323Z,102.95
2022-10-19T03:15:47.449Z,107.97
2022-10-19T03:18:32.841Z,92.10
2022-10-19T03:21:21.020Z,93.15
2022-10-19T03:24:09.522Z,80.22
2022-10-19T03:26:55.121Z,81.78
2022-10-19T03:29:40.523Z,84.95
2022-10-19T03:32:25.901Z,87.22
2022-10-19T03:35:11.883Z,94.65
2022-10-19T03:37:57.286Z,79.43
2022-10-19T03:40:46.016Z,76.72
2022-10-19T03:43:34.423Z,80.65
2022-10-19T03:46:21.105Z,66.18
2022-10-19T03:49:07.338Z,78.13
2022-10-19T03:51:52.532Z,75.65
2022-10-19T03:54:38.848Z,72.13
2022-10-19T03:57:29.252Z,56.33
2022-10-19T04:00:14.989Z,72.43
2022-10-19T04:03:00.285Z,52.83
2022-10-19T04:05:45.592Z,59.55
2022-10-19T04:08:34.611Z,54.90
2022-10-19T04:11:23.375Z,66.78
2022-10-19T04:14:26.638Z,52.25
2022-10-19T04:17:27.335Z,46.80
2022-10-19T04:20:12.783Z,39.83
2022-10-19T04:23:01.099Z,43.85
2022-10-19T04:25:46.752Z,58.33
2022-10-19T04:28:32.624Z,47.13
2022-10-19T04:31:18.084Z,48.00
2022-10-19T04:34:04.008Z,42.17
2022-10-19T04:36:49.584Z,37.58
2022-10-19T04:39:39.229Z,34.60
2022-10-19T04:42:24.817Z,39.97
2022-10-19T04:45:10.700Z,48.72
2022-10-19T04:47:59.079Z,49.00
2022-10-19T04:50:44.240Z,51.00
2022-10-19T04:53:40.710Z,46.03
2022-10-19T04:56:27.367Z,41.50
2022-10-19T04:59:13.000Z,54.33
2022-10-19T05:01:58.052Z,45.00
2022-10-19T05:04:48.138Z,50.40
2022-10-19T05:07:33.820Z,58.42
2022-10-19T05:10:22.151Z,48.50
2022-10-19T05:13:07.355Z,47.25
2022-10-19T05:15:57.409Z,52.80
2022-10-19T05:19:13.863Z,51.53
2022-10-19T05:22:01.978Z,52.10
2022-10-19T05:24:48.372Z,46.78
2022-10-19T05:27:34.250Z,47.25
2022-10-19T05:30:21.813Z,48.72
2022-10-19T05:33:07.069Z,50.13
2022-10-19T05:35:54.883Z,44.00
2022-10-19T05:38:40.648Z,43.20
2022-10-19T05:41:26.616Z,42.30
2022-10-19T05:44:21.143Z,42.25
2022-10-19T05:47:06.429Z,54.33
2022-10-19T05:49:54.754Z,53.15
2022-10-19T05:52:46.059Z,52.67
2022-10-19T05:55:35.463Z,43.88
2022-10-19T05:58:21.345Z,46.65
2022-10-19T06:01:06.728Z,43.70
2022-10-19T06:03:53.731Z,44.58
2022-10-19T06:06:39.168Z,49.38
2022-10-19T06:09:27.583Z,44.55
2022-10-19T06:12:15.743Z,30.20
2022-10-19T06:15:03.096Z,43.55
2022-10-19T06:17:48.636Z,41.33
2022-10-19T06:20:39.110Z,50.78
2022-10-19T06:23:24.400Z,43.83
2022-10-19T06:26:14.104Z,32.63
2022-10-19T06:29:01.056Z,30.23
2022-10-19T06:31:47.770Z,34.53
2022-10-19T06:34:33.473Z,44.63
2022-10-19T06:37:38.970Z,31.92
2022-10-19T06:40:25.324Z,37.00
2022-10-19T06:43:11.153Z,48.90
2022-10-19T06:45:59.064Z,37.60
2022-10-19T06:48:44.344Z,38.45
2022-10-19T06:51:32.038Z,25.38
2022-10-19T06:54:17.424Z,32.72
2022-10-19T06:57:02.965Z,34.25
2022-10-19T06:59:51.393Z,40.85
2022-10-19T07:02:38.631Z,29.35
2022-10-19T07:05:23.852Z,30.05
2022-10-19T07:08:09.411Z,31.67
2022-10-19T07:11:03.623Z,21.92
2022-10-19T07:13:53.219Z,25.90
2022-10-19T07:16:38.754Z,28.00
2022-10-19T07:19:30.046Z,21.98
2022-10-19T07:22:20.351Z,28.00
2022-10-19T07:25:08.829Z,25.92
2022-10-19T07:27:54.605Z,16.67
2022-10-19T07:30:40.316Z,20.73
2022-10-19T07:33:25.978Z,21.67
2022-10-19T07:36:13.622Z,16.77
2022-10-19T07:39:00.474Z,17.08
2022-10-19T07:41:46.222Z,23.42
2022-10-19T07:44:31.727Z,17.58
2022-10-19T07:47:17.155Z,18.98
2022-10-19T07:50:02.299Z,22.38
2022-10-19T07:52:47.845Z,20.17
2022-10-19T07:55:34.420Z,14.27
2022-10-19T07:58:19.861Z,16.15
2022-10-19T08:01:09.771Z,15.27
2022-10-19T08:04:48.743Z,19.70
2022-10-19T08:07:04.698Z,20.35
2022-10-19T08:09:54.307Z,18.00
2022-10-19T08:12:39.863Z,21.48
2022-10-19T08:15:26.576Z,16.40
2022-10-19T08:18:17.155Z,11.95
2022-10-19T08:21:05.866Z,22.25
2022-10-19T08:23:51.269Z,13.02
2022-10-19T08:26:51.095Z,8.90
2022-10-19T08:29:36.184Z,11.52
2022-10-19T08:32:22.109Z,17.45
2022-10-19T08:35:11.050Z,10.32
2022-10-19T08:37:58.658Z,11.32
2022-10-19T08:40:45.092Z,9.05
2022-10-19T08:43:48.960Z,10.73
2022-10-19T08:46:54.949Z,17.00
2022-10-19T08:49:40.552Z,16.88
2022-10-19T08:52:35.246Z,14.13
2022-10-19T08:55:29.795Z,10.23
2022-10-19T08:58:36.080Z,11.07
2022-10-19T09:01:37.555Z,13.93
2022-10-19T09:04:32.598Z,15.93
2022-10-19T09:07:28.473Z,9.32
2022-10-19T09:10:14.886Z,7.28
2022-10-19T09:13:16.246Z,9.23
2022-10-19T09:16:02.874Z,10.82
2022-10-19T09:18:49.566Z,11.93
2022-10-19T09:21:50.995Z,8.77
2022-10-19T09:24:43.006Z,7.97
2022-10-19T09:27:38.811Z,10.75
2022-10-19T09:30:24.707Z,11.25
2022-10-19T09:33:19.118Z,14.80
2022-10-19T09:36:06.586Z,10.23
2022-10-19T09:38:51.947Z,11.57
2022-10-19T09:41:43.810Z,12.15
2022-10-19T09:44:30.140Z,6.45
2022-10-19T09:47:18.684Z,8.07
2022-10-19T09:50:24.235Z,9.13
2022-10-19T09:53:18.928Z,9.80
2022-10-19T09:56:11.384Z,9.80
2022-10-19T09:58:58.934Z,6.35
2022-10-19T10:01:44.700Z,6.78
2022-10-19T10:04:30.468Z,9.55
2022-10-19T10:07:17.922Z,10.52
2022-10-19T10:10:30.635Z,10.80
2022-10-19T10:13:23.413Z,8.85
2022-10-19T10:16:11.635Z,6.90
2022-10-19T10:19:11.549Z,10.80
2022-10-19T10:21:59.044Z,6.78
2022-10-19T10:24:55.711Z,6.40
2022-10-19T10:27:41.051Z,7.05
2022-10-19T10:30:30.791Z,11.10
2022-10-19T10:33:33.186Z,11.45
2022-10-19T10:36:28.171Z,7.03
2022-10-19T10:39:16.042Z,5.88
2022-10-19T10:42:17.461Z,7.13
2022-10-19T10:45:16.181Z,11.70
2022-10-19T10:48:25.192Z,5.55
2022-10-19T10:51:23.059Z,11.25
2022-10-19T10:54:25.564Z,10.43
2022-10-19T10:57:14.170Z,8.75
2022-10-19T11:00:08.137Z,8.88
2022-10-19T11:03:18.975Z,6.65
2022-10-19T11:06:04.892Z,8.15
2022-10-19T11:08:59.032Z,9.13
2022-10-19T11:11:47.642Z,4.57
2022-10-19T11:14:33.067Z,3.35
2022-10-19T11:17:26.101Z,9.77
2022-10-19T11:20:16.045Z,6.38
2022-10-19T11:23:35.305Z,7.72
2022-10-19T11:26:35.389Z,4.57
2022-10-19T11:29:57.273Z,4.32
2022-10-19T11:33:14.471Z,4.68
2022-10-19T11:36:15.736Z,5.85
2022-10-19T11:39:26.252Z,4.60
2022-10-19T11:42:11.676Z,7.93
2022-10-19T11:45:03.264Z,5.50
2022-10-19T11:48:09.499Z,5.13
2022-10-19T11:51:44.004Z,6.88
2022-10-19T11:54:40.899Z,4.03
2022-10-19T11:57:34.967Z,4.78
2022-10-19T12:00:38.314Z,5.20
2022-10-19T12:03:45.591Z,4.43
2022-10-19T12:07:12.808Z,4.97
2022-10-19T12:10:34.151Z,4.93
2022-10-19T12:13:27.234Z,6.47
2022-10-19T12:16:13.943Z,3.45
2022-10-19T12:19:02.873Z,4.05
2022-10-19T12:21:51.036Z,5.32
2022-10-19T12:24:37.776Z,3.78
2022-10-19T12:27:42.172Z,6.15
2022-10-19T12:30:27.795Z,4.38
2022-10-19T12:33:36.179Z,4.18
2022-10-19T12:36:32.887Z,3.42
2022-10-19T12:39:25.832Z,4.20
2022-10-19T12:42:10.915Z,5.13
2022-10-19T12:45:02.387Z,5.13
2022-10-19T12:48:12.906Z,6.68
2022-10-19T12:51:01.996Z,5.80
2022-10-19T12:53:49.158Z,6.60
2022-10-19T12:56:48.525Z,9.00
2022-10-19T12:59:36.207Z,3.47
2022-10-19T13:02:35.248Z,4.95
2022-10-19T13:05:23.096Z,6.97
2022-10-19T13:08:24.090Z,7.35
2022-10-19T13:11:15.272Z,5.07
2022-10-19T13:14:03.649Z,7.78
2022-10-19T13:17:02.720Z,8.65
2022-10-19T13:19:48.097Z,7.05
2022-10-19T13:22:34.012Z,4.20
2022-10-19T13:25:27.174Z,5.35
2022-10-19T13:28:15.377Z,6.63
2022-10-19T13:31:08.096Z,4.65
2022-10-19T13:34:11.592Z,8.50
2022-10-19T13:37:12.123Z,4.10
2022-10-19T13:39:57.899Z,5.97
2022-10-19T13:42:45.821Z,4.55
2022-10-19T13:45:31.624Z,6.30
2022-10-19T13:48:37.323Z,13.05
2022-10-19T13:51:46.984Z,5.65
2022-10-19T13:55:15.155Z,7.28
2022-10-19T13:58:15.880Z,10.50
2022-10-19T14:01:24.414Z,4.93
2022-10-19T14:04:26.458Z,5.43
2022-10-19T14:07:32.937Z,9.82
2022-10-19T14:10:25.130Z,6.68
2022-10-19T14:13:22.148Z,7.80
2022-10-19T14:16:17.025Z,6.53
2022-10-19T14:19:02.739Z,6.40
2022-10-19T14:21:48.131Z,4.13
2022-10-19T14:24:35.576Z,9.90
2022-10-19T14:27:24.600Z,4.70
2022-10-19T14:30:31.298Z,7.13
2022-10-19T14:33:17.926Z,12.18
2022-10-19T14:36:03.719Z,6.95
2022-10-19T14:38:53.075Z,10.77
2022-10-19T14:41:38.792Z,5.32
2022-10-19T14:44:38.626Z,4.38
2022-10-19T14:47:30.230Z,7.40
2022-10-19T14:50:15.668Z,7.10
2022-10-19T14:53:14.171Z,8.98
2022-10-19T14:56:09.728Z,7.30
2022-10-19T14:59:03.864Z,8.50
2022-10-19T15:01:55.166Z,8.40
2022-10-19T15:04:42.099Z,5.25
2022-10-19T15:07:35.216Z,5.70
2022-10-19T15:10:25.484Z,4.72
2022-10-19T15:13:24.202Z,5.25
2022-10-19T15:16:33.012Z,9.18
2022-10-19T15:19:22.763Z,6.15
2022-10-19T15:22:16.973Z,6.53
2022-10-19T15:25:19.893Z,6.22
2022-10-19T15:28:40.759Z,11.27
2022-10-19T15:31:29.044Z,9.10
2022-10-19T15:34:32.415Z,7.75
2022-10-19T15:40:23.186Z,8.00
2022-10-19T15:43:24.606Z,10.65
2022-10-19T15:46:13.281Z,6.55
2022-10-19T15:49:15.170Z,5.90
2022-10-19T15:52:00.667Z,6.75
2022-10-19T15:54:50.748Z,8.95
2022-10-19T15:57:38.669Z,4.85
2022-10-19T16:00:24.046Z,10.77
2022-10-19T16:03:09.541Z,7.25
2022-10-19T16:05:55.375Z,4.30
2022-10-19T16:08:43.712Z,6.28
2022-10-19T16:11:31.569Z,10.00
2022-10-19T16:17:02.474Z,10.40
2022-10-19T16:19:57.392Z,10.55
2022-10-19T16:22:44.690Z,9.45
2022-10-19T16:25:32.673Z,7.20
2022-10-19T16:28:17.787Z,11.52
2022-10-19T16:31:03.280Z,6.15
2022-10-19T16:33:49.167Z,11.98
2022-10-19T16:36:34.444Z,8.15
2022-10-19T16:39:19.876Z,4.97
2022-10-19T16:42:05.825Z,6.78
2022-10-19T16:44:51.383Z,9.30
2022-10-19T16:47:36.860Z,9.20
2022-10-19T16:50:22.568Z,7.03
2022-10-19T16:53:10.386Z,8.20
2022-10-19T16:56:04.714Z,9.63
2022-10-19T16:58:53.866Z,12.90
2022-10-19T17:01:39.393Z,7.28
2022-10-19T17:04:25.975Z,10.23
2022-10-19T17:07:12.867Z,13.68
2022-10-19T17:09:58.414Z,15.48
2022-10-19T17:12:44.136Z,8.73
2022-10-19T17:15:42.886Z,6.47
2022-10-19T17:18:28.875Z,6.60
2022-10-19T17:21:26.555Z,11.75
2022-10-19T17:24:22.126Z,6.03
2022-10-19T17:27:07.808Z,9.13
2022-10-19T17:30:18.551Z,7.28
2022-10-19T17:33:07.200Z,7.78
2022-10-19T17:35:52.476Z,8.13
2022-10-19T17:38:38.500Z,9.52
2022-10-19T17:41:24.522Z,12.00
2022-10-19T17:44:10.339Z,10.27
2022-10-19T17:46:55.582Z,10.48
2022-10-19T17:49:41.209Z,13.20
2022-10-19T17:52:26.712Z,5.20
2022-10-19T17:55:13.086Z,8.63
2022-10-19T17:58:02.398Z,12.48
2022-10-19T18:00:58.444Z,8.80
2022-10-19T18:03:46.760Z,9.13
2022-10-19T18:06:34.968Z,11.15
2022-10-19T18:09:20.351Z,10.25
2022-10-19T18:12:07.527Z,8.77
2022-10-19T18:14:53.356Z,10.90
2022-10-19T18:17:41.940Z,12.70
2022-10-19T18:20:27.291Z,19.40
2022-10-19T18:23:13.415Z,10.55
2022-10-19T18:26:03.790Z,10.57
2022-10-19T18:28:50.867Z,12.50
2022-10-19T18:31:38.193Z,14.93
2022-10-19T18:34:25.548Z,14.30
2022-10-19T18:37:11.935Z,11.05
2022-10-19T18:40:01.033Z,13.93
2022-10-19T18:42:46.719Z,10.63
2022-10-19T18:45:33.123Z,13.13
2022-10-19T18:48:18.559Z,11.57
2022-10-19T18:51:06.764Z,16.52
2022-10-19T18:53:52.794Z,16.10
2022-10-19T18:56:38.375Z,12.52
2022-10-19T18:59:24.039Z,9.70
2022-10-19T19:02:22.213Z,14.02
2022-10-19T19:05:18.443Z,16.80
2022-10-19T19:08:04.047Z,14.93
2022-10-19T19:10:49.624Z,12.80
2022-10-19T19:13:35.327Z,9.25
2022-10-19T19:16:33.382Z,11.63
2022-10-19T19:19:19.929Z,13.05
2022-10-19T19:22:08.796Z,11.13
2022-10-19T19:24:56.646Z,11.20
2022-10-19T19:27:41.809Z,12.13
2022-10-19T19:30:29.316Z,9.35
2022-10-19T19:33:14.865Z,10.13
2022-10-19T19:36:03.659Z,15.57
2022-10-19T19:38:51.008Z,8.55
2022-10-19T19:41:38.199Z,8.93
2022-10-19T19:44:29.553Z,14.20
2022-10-19T19:47:15.044Z,11.38
2022-10-19T19:50:00.513Z,13.23
2022-10-19T19:52:48.236Z,11.60
2022-10-19T19:55:38.249Z,10.77
2022-10-19T19:58:24.356Z,11.80
2022-10-19T20:01:12.601Z,9.15
2022-10-19T20:06:48.034Z,9.90
2022-10-19T20:09:34.492Z,10.63
2022-10-19T20:12:20.067Z,18.80
2022-10-19T20:15:06.299Z,10.60
2022-10-19T20:17:51.647Z,11.20
2022-10-19T20:20:37.176Z,15.40
2022-10-19T20:23:22.615Z,10.98
2022-10-19T20:26:21.421Z,11.35
2022-10-19T20:29:07.238Z,20.13
2022-10-19T20:31:52.977Z,10.68
2022-10-19T20:34:40.819Z,15.10
2022-10-19T20:37:30.406Z,12.13
2022-10-19T20:40:20.873Z,11.60
2022-10-19T20:43:08.757Z,11.93
2022-10-19T20:45:54.192Z,19.30
2022-10-19T20:48:40.425Z,16.95
2022-10-19T20:51:31.916Z,7.50
2022-10-19T20:54:17.708Z,14.25
2022-10-19T20:57:03.380Z,15.68
2022-10-19T20:59:49.317Z,17.10
2022-10-19T21:02:34.982Z,13.25
2022-10-19T21:05:20.678Z,13.40
2022-10-19T21:10:53.498Z,12.20
2022-10-19T21:13:39.325Z,16.83
2022-10-19T21:16:30.241Z,18.88
2022-10-19T21:19:19.455Z,11.43
2022-10-19T21:22:06.185Z,14.95
2022-10-19T21:24:51.522Z,18.45
2022-10-19T21:27:37.549Z,11.88
2022-10-19T21:30:22.957Z,16.85
2022-10-19T21:33:08.817Z,14.77
2022-10-19T21:35:54.130Z,21.20
2022-10-19T21:38:39.808Z,16.70
2022-10-19T21:41:26.420Z,12.43
2022-10-19T21:44:16.008Z,13.98
2022-10-19T21:47:04.256Z,13.98
2022-10-19T21:49:56.052Z,17.17
2022-10-19T21:52:44.539Z,15.23
2022-10-19T21:55:37.230Z,12.68
2022-10-19T21:58:22.836Z,9.38
2022-10-19T22:01:08.340Z,19.48
2022-10-19T22:04:05.271Z,14.27
2022-10-19T22:06:51.144Z,15.65
2022-10-19T22:09:36.520Z,13.07
2022-10-19T22:12:22.169Z,14.77
2022-10-19T22:15:07.942Z,21.13
2022-10-19T22:17:53.616Z,14.35
2022-10-19T22:20:39.967Z,11.27
2022-10-19T22:23:25.519Z,14.23
2022-10-19T22:26:19.335Z,11.73
2022-10-19T22:29:06.439Z,13.75
2022-10-19T22:31:52.124Z,20.85
2022-10-19T22:34:38.443Z,14.35
2022-10-19T22:37:24.018Z,17.35
2022-10-19T22:40:10.027Z,15.77
2022-10-19T22:42:55.351Z,15.57
2022-10-19T22:45:40.992Z,27.95
2022-10-19T22:48:26.100Z,17.08
2022-10-19T22:51:13.839Z,16.98
2022-10-19T22:54:02.271Z,17.73
2022-10-19T22:56:47.698Z,15.50
2022-10-19T22:59:33.370Z,23.55
2022-10-19T23:02:18.856Z,17.10
2022-10-19T23:05:04.593Z,16.88
2022-10-19T23:07:49.999Z,19.95
2022-10-19T23:10:35.418Z,17.10
2022-10-19T23:13:21.917Z,24.08
2022-10-19T23:16:12.101Z,18.13
2022-10-19T23:18:58.636Z,15.02
2022-10-19T23:21:46.792Z,18.98
2022-10-19T23:24:32.171Z,16.77
2022-10-19T23:27:17.824Z,16.60
2022-10-19T23:30:09.755Z,19.70
2022-10-19T23:32:55.139Z,18.30
2022-10-19T23:35:40.737Z,16.48
2022-10-19T23:38:26.279Z,16.88
2022-10-19T23:41:12.558Z,15.35
2022-10-19T23:43:58.245Z,17.08
2022-10-19T23:46:46.432Z,19.40
2022-10-19T23:49:37.183Z,17.67
2022-10-19T23:52:22.609Z,16.25
2022-10-19T23:55:08.677Z,16.92
2022-10-19T23:57:54.242Z,29.17
